Time;durP1;ratioP1;P1;durP2;ratioP2;P2;SDS_P1;SDS_P2;PMS_P1;PMS_P2;Temp;Humidity;BMP_temperature;BMP_pressure;BME280_temperature;BME280_humidity;BME280_pressure;Samples;Min_cycle;Max_cycle;Signal;HPM_P1;HPM_P2
2022/05/16 00:02:22;;;;;;;0.20;0.20;;;;;;;;;;5042774;28;20116;-80
2022/05/16 00:04:49;;;;;;;1.65;1.20;;;;;;;;;;5040324;28;20116;-79
2022/05/16 00:07:16;;;;;;;1.02;0.47;;;;;;;;;;5041057;28;20506;-79
2022/05/16 00:09:42;;;;;;;0.20;0.20;;;;;;;;;;5045886;28;20028;-80
2022/05/16 00:12:09;;;;;;;0.63;0.63;;;;;;;;;;5044839;28;20047;-79
2022/05/16 00:14:35;;;;;;;0.22;0.22;;;;;;;;;;5036431;28;20036;-80
2022/05/16 00:17:01;;;;;;;0.40;0.40;;;;;;;;;;5037877;28;20031;-79
2022/05/16 00:19:27;;;;;;;6.32;0.65;;;;;;;;;;5043028;28;22176;-79
2022/05/16 00:21:53;;;;;;;0.30;0.20;;;;;;;;;;5049091;28;20025;-79
2022/05/16 00:24:24;;;;;;;1.05;1.02;;;;;;;;;;5048272;28;20124;-79
2022/05/16 00:26:49;;;;;;;0.32;0.32;;;;;;;;;;5045164;28;20870;-79
2022/05/16 00:29:15;;;;;;;1.40;1.23;;;;;;;;;;5047235;28;20029;-80
2022/05/16 00:31:41;;;;;;;0.38;0.38;;;;;;;;;;5045531;28;20055;-80
2022/05/16 00:34:07;;;;;;;0.95;0.40;;;;;;;;;;5045192;28;20403;-79
2022/05/16 00:36:33;;;;;;;0.75;0.52;;;;;;;;;;5044776;28;20119;-79
2022/05/16 00:38:59;;;;;;;0.10;0.10;;;;;;;;;;5047861;28;20032;-79
2022/05/16 00:41:25;;;;;;;1.02;0.25;;;;;;;;;;5045818;28;20029;-80
2022/05/16 00:43:56;;;;;;;0.25;0.25;;;;;;;;;;5047960;28;20107;-79
2022/05/16 00:46:23;;;;;;;0.75;0.68;;;;;;;;;;5046519;28;20025;-79
2022/05/16 00:48:49;;;;;;;0.40;0.40;;;;;;;;;;5047120;28;20040;-79
2022/05/16 00:51:20;;;;;;;0.60;0.40;;;;;;;;;;5045361;28;20090;-79
2022/05/16 00:53:47;;;;;;;0.50;0.50;;;;;;;;;;5047734;28;20025;-80
2022/05/16 00:56:14;;;;;;;0.35;0.35;;;;;;;;;;5045344;28;20528;-79
2022/05/16 00:58:41;;;;;;;0.30;0.15;;;;;;;;;;5041686;28;20028;-79
2022/05/16 01:04:47;;;;;;;0.88;0.30;;;;;;;;;;5033256;28;20036;-79
2022/05/16 01:06:39;;;;;;;0.30;0.30;;;;;;;;;;5040844;28;20063;-79
2022/05/16 01:09:06;;;;;;;0.30;0.20;;;;;;;;;;5038646;28;20033;-79
2022/05/16 01:11:33;;;;;;;1.88;0.93;;;;;;;;;;5037553;28;20120;-79
2022/05/16 01:13:59;;;;;;;0.17;0.17;;;;;;;;;;5046330;28;20043;-79
2022/05/16 01:16:25;;;;;;;0.30;0.30;;;;;;;;;;5046877;28;20464;-79
2022/05/16 01:18:50;;;;;;;0.00;0.00;;;;;;;;;;5044336;28;20041;-80
2022/05/16 01:21:30;;;;;;;0.57;0.57;;;;;;;;;;5046090;28;20033;-79
2022/05/16 01:24:01;;;;;;;0.47;0.40;;;;;;;;;;5039540;28;20506;-80
2022/05/16 01:26:28;;;;;;;6.88;1.02;;;;;;;;;;5035715;28;20479;-79
2022/05/16 01:28:54;;;;;;;0.55;0.55;;;;;;;;;;5045649;28;20458;-80
2022/05/16 01:31:21;;;;;;;0.28;0.28;;;;;;;;;;5051886;28;20025;-80
2022/05/16 01:33:47;;;;;;;0.30;0.20;;;;;;;;;;5051081;28;20017;-80
2022/05/16 01:36:12;;;;;;;0.10;0.10;;;;;;;;;;5048324;28;20025;-80
2022/05/16 01:38:39;;;;;;;0.30;0.20;;;;;;;;;;5051629;28;20065;-80
2022/05/16 01:41:06;;;;;;;0.90;0.47;;;;;;;;;;5055028;28;20029;-80
2022/05/16 01:43:35;;;;;;;1.52;1.33;;;;;;;;;;5049995;28;20083;-80
2022/05/16 01:46:01;;;;;;;0.35;0.35;;;;;;;;;;5047094;28;20539;-80
2022/05/16 01:48:30;;;;;;;0.50;0.50;;;;;;;;;;5048026;28;20115;-80
2022/05/16 01:50:58;;;;;;;0.77;0.77;;;;;;;;;;5050887;28;20017;-80
2022/05/16 01:53:24;;;;;;;0.73;0.20;;;;;;;;;;5051647;28;20075;-80
2022/05/16 01:55:50;;;;;;;0.47;0.45;;;;;;;;;;5048766;28;20446;-80
2022/05/16 01:58:16;;;;;;;0.50;0.50;;;;;;;;;;5050549;28;20028;-80
2022/05/16 02:00:42;;;;;;;0.43;0.35;;;;;;;;;;5049040;28;20025;-80
2022/05/16 02:03:08;;;;;;;0.47;0.47;;;;;;;;;;5043680;28;20484;-80
2022/05/16 02:05:34;;;;;;;0.20;0.15;;;;;;;;;;5045769;28;20056;-80
2022/05/16 02:08:00;;;;;;;1.25;0.65;;;;;;;;;;5042030;28;20388;-80
2022/05/16 02:10:27;;;;;;;0.25;0.25;;;;;;;;;;5051247;28;20490;-80
2022/05/16 02:12:56;;;;;;;0.30;0.30;;;;;;;;;;5051216;28;20029;-79
2022/05/16 02:15:23;;;;;;;0.10;0.10;;;;;;;;;;5049845;28;20033;-79
2022/05/16 02:17:50;;;;;;;0.20;0.20;;;;;;;;;;5042809;28;20040;-79
2022/05/16 02:20:16;;;;;;;0.20;0.20;;;;;;;;;;5046620;28;20494;-79
2022/05/16 02:25:27;;;;;;;0.95;0.95;;;;;;;;;;5047726;28;20087;-79
2022/05/16 02:27:53;;;;;;;0.20;0.20;;;;;;;;;;5049560;28;20057;-79
2022/05/16 02:30:23;;;;;;;0.88;0.77;;;;;;;;;;5049176;28;20086;-79
2022/05/16 02:32:49;;;;;;;0.85;0.85;;;;;;;;;;5050040;28;20039;-79
2022/05/16 02:35:15;;;;;;;1.27;0.88;;;;;;;;;;5049378;28;20049;-79
2022/05/16 02:37:42;;;;;;;0.20;0.20;;;;;;;;;;5050012;28;20040;-79
2022/05/16 02:40:08;;;;;;;0.60;0.60;;;;;;;;;;5049482;28;20088;-79
2022/05/16 02:42:35;;;;;;;0.93;0.43;;;;;;;;;;5051164;28;20021;-79
2022/05/16 02:45:01;;;;;;;0.32;0.30;;;;;;;;;;5041358;28;20025;-78
2022/05/16 02:47:27;;;;;;;0.13;0.13;;;;;;;;;;5046638;28;20036;-79
2022/05/16 02:49:53;;;;;;;0.57;0.38;;;;;;;;;;5044769;28;20033;-80
2022/05/16 02:52:19;;;;;;;0.20;0.20;;;;;;;;;;5049588;28;20388;-80
2022/05/16 02:54:45;;;;;;;2.95;1.13;;;;;;;;;;5038611;28;20033;-80
2022/05/16 02:57:11;;;;;;;0.57;0.43;;;;;;;;;;5046969;28;20041;-80
2022/05/16 02:59:37;;;;;;;1.10;1.02;;;;;;;;;;5043629;28;20078;-80
2022/05/16 03:02:05;;;;;;;0.80;0.70;;;;;;;;;;5048041;28;20139;-80
2022/05/16 03:04:31;;;;;;;0.10;0.10;;;;;;;;;;5042077;28;20091;-80
2022/05/16 03:06:57;;;;;;;0.40;0.40;;;;;;;;;;5039554;28;20037;-80
2022/05/16 03:09:24;;;;;;;0.52;0.50;;;;;;;;;;5045772;28;20025;-80
2022/05/16 03:11:50;;;;;;;0.93;0.60;;;;;;;;;;5045872;28;20032;-80
2022/05/16 03:14:16;;;;;;;1.35;1.00;;;;;;;;;;5049714;28;20079;-80
2022/05/16 03:16:42;;;;;;;0.20;0.20;;;;;;;;;;5046593;28;20021;-80
2022/05/16 03:19:08;;;;;;;0.10;0.10;;;;;;;;;;5040428;28;20434;-80
2022/05/16 03:21:34;;;;;;;0.45;0.40;;;;;;;;;;5048144;28;20033;-80
2022/05/16 03:24:00;;;;;;;0.70;0.65;;;;;;;;;;5044356;28;20044;-80
2022/05/16 03:26:26;;;;;;;0.65;0.65;;;;;;;;;;5048875;28;20485;-80
2022/05/16 03:28:52;;;;;;;0.22;0.20;;;;;;;;;;5045402;28;20120;-80
2022/05/16 03:31:18;;;;;;;0.13;0.13;;;;;;;;;;5046153;28;20029;-80
2022/05/16 03:33:44;;;;;;;0.38;0.38;;;;;;;;;;5046375;28;20037;-80
2022/05/16 03:36:11;;;;;;;1.33;1.15;;;;;;;;;;5044086;28;20032;-80
2022/05/16 03:41:22;;;;;;;0.25;0.25;;;;;;;;;;5048078;28;20050;-80
2022/05/16 03:43:48;;;;;;;0.90;0.85;;;;;;;;;;5048741;28;20032;-80
2022/05/16 03:46:14;;;;;;;0.13;0.13;;;;;;;;;;5047137;28;20052;-80
2022/05/16 03:48:40;;;;;;;0.38;0.38;;;;;;;;;;5045959;28;20275;-80
2022/05/16 03:51:07;;;;;;;0.15;0.15;;;;;;;;;;5044699;28;20029;-80
2022/05/16 03:53:36;;;;;;;1.00;0.60;;;;;;;;;;5039701;28;20045;-80
2022/05/16 03:56:02;;;;;;;0.57;0.55;;;;;;;;;;5045674;28;20060;-80
2022/05/16 03:58:28;;;;;;;0.63;0.17;;;;;;;;;;5049376;28;20131;-80
2022/05/16 04:00:54;;;;;;;0.28;0.28;;;;;;;;;;5047959;28;20516;-80
2022/05/16 04:03:20;;;;;;;0.30;0.30;;;;;;;;;;5046508;28;20029;-79
2022/05/16 04:05:46;;;;;;;0.40;0.40;;;;;;;;;;5045510;28;20177;-80
2022/05/16 04:08:12;;;;;;;0.47;0.47;;;;;;;;;;5043881;28;20028;-80
2022/05/16 04:10:38;;;;;;;0.38;0.30;;;;;;;;;;5044939;28;20486;-80
2022/05/16 04:13:04;;;;;;;0.30;0.30;;;;;;;;;;5043254;28;20075;-80
2022/05/16 04:15:29;;;;;;;0.93;0.93;;;;;;;;;;5043492;28;20061;-80
2022/05/16 04:17:55;;;;;;;0.73;0.73;;;;;;;;;;5048535;28;20089;-80
2022/05/16 04:20:22;;;;;;;3.45;1.55;;;;;;;;;;5038128;28;20037;-80
2022/05/16 04:22:48;;;;;;;1.40;1.05;;;;;;;;;;5038844;28;20411;-80
2022/05/16 04:25:16;;;;;;;0.40;0.40;;;;;;;;;;5048731;28;20035;-80
2022/05/16 04:27:42;;;;;;;0.20;0.20;;;;;;;;;;5048390;28;20043;-80
2022/05/16 04:30:08;;;;;;;0.43;0.43;;;;;;;;;;5035046;28;20041;-80
2022/05/16 04:32:34;;;;;;;2.33;0.43;;;;;;;;;;5039859;28;20040;-80
2022/05/16 04:35:01;;;;;;;0.60;0.60;;;;;;;;;;5044951;28;20021;-80
2022/05/16 04:37:32;;;;;;;1.98;1.10;;;;;;;;;;5048417;28;20033;-80
2022/05/16 04:39:57;;;;;;;1.40;0.68;;;;;;;;;;5049528;28;20032;-80
2022/05/16 04:42:43;;;;;;;0.80;0.80;;;;;;;;;;5051699;28;20582;-80
2022/05/16 04:45:28;;;;;;;2.15;1.48;;;;;;;;;;5044663;28;20513;-80
2022/05/16 04:47:55;;;;;;;4.32;0.63;;;;;;;;;;5040844;28;20025;-79
2022/05/16 04:50:32;;;;;;;0.77;0.77;;;;;;;;;;5044508;28;20029;-80
2022/05/16 04:52:58;;;;;;;0.40;0.40;;;;;;;;;;5046936;28;20035;-80
2022/05/16 04:55:24;;;;;;;1.63;0.70;;;;;;;;;;5047904;28;20554;-80
2022/05/16 04:57:50;;;;;;;3.50;0.60;;;;;;;;;;5040204;28;20043;-80
2022/05/16 05:00:18;;;;;;;0.70;0.70;;;;;;;;;;5040288;28;20029;-80
2022/05/16 05:02:50;;;;;;;0.90;0.90;;;;;;;;;;5039998;28;20029;-77
2022/05/16 05:05:16;;;;;;;1.00;0.55;;;;;;;;;;5037231;28;20068;-76
2022/05/16 05:07:43;;;;;;;0.32;0.32;;;;;;;;;;5030077;28;20024;-77
2022/05/16 05:15:39;;;;;;;2.50;0.52;;;;;;;;;;5046276;28;20237;-81
2022/05/16 05:18:05;;;;;;;0.82;0.57;;;;;;;;;;5048490;28;20033;-85
2022/05/16 05:20:34;;;;;;;0.32;0.32;;;;;;;;;;5046267;28;20057;-76
2022/05/16 05:23:01;;;;;;;0.85;0.68;;;;;;;;;;5045461;28;20025;-76
2022/05/16 05:25:27;;;;;;;1.45;0.55;;;;;;;;;;5042344;28;20111;-77
2022/05/16 05:27:53;;;;;;;0.38;0.38;;;;;;;;;;5036778;28;20263;-77
2022/05/16 05:30:21;;;;;;;0.55;0.50;;;;;;;;;;5046112;28;20116;-83
2022/05/16 05:32:47;;;;;;;0.20;0.20;;;;;;;;;;5040408;28;20029;-84
2022/05/16 05:35:14;;;;;;;0.93;0.82;;;;;;;;;;5041480;28;20164;-83
2022/05/16 05:37:40;;;;;;;1.08;0.40;;;;;;;;;;5046950;28;20074;-84
2022/05/16 05:40:06;;;;;;;0.45;0.43;;;;;;;;;;5040457;28;20037;-78
2022/05/16 05:42:32;;;;;;;0.57;0.57;;;;;;;;;;5048386;28;20021;-78
2022/05/16 05:44:59;;;;;;;0.13;0.13;;;;;;;;;;5042577;28;20164;-79
2022/05/16 05:47:25;;;;;;;0.63;0.47;;;;;;;;;;5042562;28;20032;-80
2022/05/16 05:49:51;;;;;;;2.38;0.47;;;;;;;;;;5042570;28;20037;-79
2022/05/16 05:52:17;;;;;;;0.03;0.03;;;;;;;;;;5040451;28;20368;-79
2022/05/16 05:54:46;;;;;;;1.20;0.57;;;;;;;;;;5044743;28;20482;-79
2022/05/16 05:57:13;;;;;;;1.45;1.33;;;;;;;;;;5038634;28;20049;-80
2022/05/16 05:59:39;;;;;;;0.73;0.73;;;;;;;;;;5042858;28;20033;-78
2022/05/16 06:02:07;;;;;;;1.88;0.40;;;;;;;;;;5043646;28;20121;-81
2022/05/16 06:04:33;;;;;;;3.75;0.68;;;;;;;;;;5038556;28;20049;-80
2022/05/16 06:07:00;;;;;;;0.63;0.57;;;;;;;;;;5043774;28;20032;-89
2022/05/16 06:09:26;;;;;;;0.60;0.60;;;;;;;;;;5044824;28;20108;-76
2022/05/16 06:11:52;;;;;;;0.28;0.28;;;;;;;;;;5046490;28;20040;-76
2022/05/16 06:14:18;;;;;;;0.20;0.20;;;;;;;;;;5029042;28;20022;-84
2022/05/16 06:16:44;;;;;;;3.03;0.70;;;;;;;;;;5047762;28;20507;-85
2022/05/16 06:19:10;;;;;;;0.68;0.68;;;;;;;;;;5049793;28;20517;-84
2022/05/16 06:21:36;;;;;;;7.80;1.73;;;;;;;;;;5041072;28;20021;-84
2022/05/16 06:24:02;;;;;;;0.30;0.20;;;;;;;;;;5053942;28;20276;-85
2022/05/16 06:26:28;;;;;;;1.23;1.00;;;;;;;;;;5050527;28;20043;-83
2022/05/16 06:28:54;;;;;;;0.35;0.35;;;;;;;;;;5040133;28;20037;-87
2022/05/16 06:31:20;;;;;;;0.90;0.50;;;;;;;;;;5054315;28;20037;-87
2022/05/16 06:33:47;;;;;;;0.75;0.65;;;;;;;;;;5041462;28;20389;-80
2022/05/16 06:36:13;;;;;;;5.20;0.57;;;;;;;;;;5045797;28;20032;-77
2022/05/16 06:38:39;;;;;;;0.55;0.52;;;;;;;;;;5048079;28;20025;-77
2022/05/16 06:41:05;;;;;;;2.13;0.30;;;;;;;;;;5051130;28;20396;-77
2022/05/16 06:43:32;;;;;;;0.45;0.35;;;;;;;;;;5044621;28;20108;-77
2022/05/16 06:45:58;;;;;;;0.10;0.10;;;;;;;;;;5049773;28;20021;-77
2022/05/16 06:48:24;;;;;;;2.22;0.50;;;;;;;;;;5045760;28;20127;-79
2022/05/16 06:50:50;;;;;;;0.60;0.60;;;;;;;;;;5047613;28;20221;-77
2022/05/16 06:53:21;;;;;;;0.30;0.30;;;;;;;;;;5045443;28;20032;-78
2022/05/16 06:55:47;;;;;;;0.52;0.52;;;;;;;;;;5039539;28;20052;-77
2022/05/16 06:58:13;;;;;;;3.78;0.93;;;;;;;;;;5045020;28;20468;-77
2022/05/16 07:00:39;;;;;;;1.02;0.63;;;;;;;;;;5048458;28;20039;-77
2022/05/16 07:03:05;;;;;;;0.30;0.30;;;;;;;;;;5045409;28;20044;-77
2022/05/16 07:05:32;;;;;;;1.42;0.68;;;;;;;;;;5045307;28;20138;-77
2022/05/16 07:07:57;;;;;;;0.85;0.50;;;;;;;;;;5041725;28;20079;-77
2022/05/16 07:10:31;;;;;;;0.47;0.47;;;;;;;;;;5043126;28;20535;-77
2022/05/16 07:12:57;;;;;;;0.55;0.35;;;;;;;;;;5043416;28;20037;-77
2022/05/16 07:15:23;;;;;;;0.35;0.35;;;;;;;;;;5044261;28;20086;-77
2022/05/16 07:17:49;;;;;;;0.40;0.40;;;;;;;;;;5049337;28;20128;-82
2022/05/16 07:20:15;;;;;;;1.45;0.50;;;;;;;;;;5046882;28;20056;-76
2022/05/16 07:22:42;;;;;;;0.85;0.63;;;;;;;;;;5047285;28;20044;-77
2022/05/16 07:25:09;;;;;;;0.55;0.55;;;;;;;;;;5046860;28;20033;-77
2022/05/16 07:30:20;;;;;;;2.97;0.95;;;;;;;;;;5033104;28;20070;-79
2022/05/16 07:32:46;;;;;;;0.50;0.50;;;;;;;;;;5045486;28;20028;-78
2022/05/16 07:35:14;;;;;;;0.22;0.22;;;;;;;;;;5050428;28;20025;-80
2022/05/16 07:37:40;;;;;;;0.50;0.50;;;;;;;;;;5047540;28;20021;-80
2022/05/16 07:40:08;;;;;;;0.25;0.25;;;;;;;;;;5042172;28;20472;-80
2022/05/16 07:42:34;;;;;;;0.73;0.40;;;;;;;;;;5043499;28;20475;-80
2022/05/16 07:45:01;;;;;;;0.47;0.43;;;;;;;;;;5044779;28;20033;-79
2022/05/16 07:47:27;;;;;;;0.45;0.45;;;;;;;;;;5049215;28;20070;-80
2022/05/16 07:49:52;;;;;;;0.85;0.68;;;;;;;;;;5050172;28;20025;-79
2022/05/16 07:52:18;;;;;;;0.32;0.30;;;;;;;;;;5049926;28;20030;-79
2022/05/16 07:54:44;;;;;;;1.83;0.93;;;;;;;;;;5048900;28;20032;-79
2022/05/16 07:57:10;;;;;;;1.23;0.55;;;;;;;;;;5049866;28;20022;-79
2022/05/16 07:59:36;;;;;;;0.50;0.50;;;;;;;;;;5049640;28;20067;-79
2022/05/16 08:02:02;;;;;;;1.95;0.90;;;;;;;;;;5035106;28;20121;-80
2022/05/16 08:04:28;;;;;;;0.85;0.70;;;;;;;;;;5029512;28;20072;-79
2022/05/16 08:06:54;;;;;;;0.40;0.40;;;;;;;;;;5029912;28;20032;-80
2022/05/16 08:12:06;;;;;;;0.98;0.73;;;;;;;;;;5039014;28;20079;-79
2022/05/16 08:14:32;;;;;;;0.85;0.32;;;;;;;;;;5029444;28;20026;-79
2022/05/16 08:16:59;;;;;;;0.30;0.30;;;;;;;;;;5034915;28;20108;-79
2022/05/16 08:19:27;;;;;;;1.52;1.00;;;;;;;;;;5029558;28;20036;-79
2022/05/16 08:21:52;;;;;;;4.05;1.33;;;;;;;;;;5034233;28;20543;-80
2022/05/16 08:24:18;;;;;;;1.35;0.60;;;;;;;;;;5029549;28;20125;-79
2022/05/16 08:26:44;;;;;;;0.80;0.73;;;;;;;;;;5029126;28;20104;-80
2022/05/16 08:29:10;;;;;;;0.60;0.60;;;;;;;;;;5034846;28;20718;-80
2022/05/16 08:31:36;;;;;;;0.30;0.30;;;;;;;;;;5038998;28;20029;-80
2022/05/16 08:34:02;;;;;;;0.93;0.65;;;;;;;;;;5039966;28;20055;-80
2022/05/16 08:42:02;;;;;;;1.45;0.80;;;;;;;;;;5036243;28;20152;-79
2022/05/16 08:44:30;;;;;;;0.88;0.40;;;;;;;;;;5045050;28;20031;-80
2022/05/16 08:47:06;;;;;;;0.50;0.50;;;;;;;;;;5031022;28;20056;-79
2022/05/16 08:49:41;;;;;;;0.30;0.30;;;;;;;;;;5029734;28;20022;-80
2022/05/16 08:52:30;;;;;;;1.60;0.60;;;;;;;;;;5036238;28;20417;-79
2022/05/16 08:54:59;;;;;;;0.57;0.52;;;;;;;;;;5031572;28;20033;-79
2022/05/16 08:57:30;;;;;;;0.60;0.50;;;;;;;;;;5035093;28;20442;-80
2022/05/16 09:00:06;;;;;;;0.80;0.40;;;;;;;;;;5028544;28;20040;-80
2022/05/16 09:02:33;;;;;;;3.20;0.95;;;;;;;;;;5038212;28;20155;-79
2022/05/16 09:05:04;;;;;;;0.85;0.73;;;;;;;;;;5028399;28;20086;-79
2022/05/16 09:07:34;;;;;;;0.20;0.20;;;;;;;;;;5045376;28;20029;-80
2022/05/16 09:10:05;;;;;;;0.50;0.50;;;;;;;;;;5037607;28;20037;-79
2022/05/16 09:12:36;;;;;;;4.28;1.08;;;;;;;;;;5041596;28;20087;-80
2022/05/16 09:15:37;;;;;;;0.75;0.50;;;;;;;;;;5046968;28;20071;-79
2022/05/16 09:18:05;;;;;;;1.55;1.40;;;;;;;;;;5026070;28;20496;-79
2022/05/16 09:20:51;;;;;;;0.52;0.30;;;;;;;;;;5040056;28;20029;-79
2022/05/16 09:23:39;;;;;;;0.60;0.47;;;;;;;;;;5035902;28;20045;-80
2022/05/16 09:26:08;;;;;;;1.20;0.68;;;;;;;;;;5038391;28;20146;-78
2022/05/16 09:28:39;;;;;;;0.52;0.52;;;;;;;;;;5028471;28;20025;-79
2022/05/16 09:31:10;;;;;;;0.52;0.40;;;;;;;;;;5036784;28;20116;-81
2022/05/16 09:33:38;;;;;;;0.28;0.22;;;;;;;;;;5028314;28;20065;-79
2022/05/16 09:36:06;;;;;;;1.50;0.50;;;;;;;;;;5028469;28;20033;-80
2022/05/16 09:38:32;;;;;;;1.02;0.65;;;;;;;;;;5028439;28;20040;-80
2022/05/16 09:41:04;;;;;;;0.68;0.60;;;;;;;;;;5045755;28;20032;-80
2022/05/16 09:43:34;;;;;;;0.40;0.40;;;;;;;;;;5028841;28;20045;-79
2022/05/16 09:46:01;;;;;;;0.28;0.28;;;;;;;;;;5029675;28;20021;-79
2022/05/16 09:48:27;;;;;;;0.88;0.80;;;;;;;;;;5040343;28;20034;-80
2022/05/16 09:51:01;;;;;;;1.38;0.85;;;;;;;;;;5033161;28;20422;-80
2022/05/16 09:53:36;;;;;;;3.60;0.57;;;;;;;;;;5040042;28;20036;-80
2022/05/16 09:56:05;;;;;;;0.40;0.40;;;;;;;;;;5036481;28;20110;-81
2022/05/16 09:58:48;;;;;;;0.52;0.50;;;;;;;;;;5032023;28;20025;-80
2022/05/16 10:01:51;;;;;;;2.35;1.23;;;;;;;;;;5036335;28;20083;-80
2022/05/16 10:04:18;;;;;;;1.08;0.38;;;;;;;;;;5042116;28;20060;-80
2022/05/16 10:07:02;;;;;;;0.43;0.30;;;;;;;;;;5039889;28;20032;-81
2022/05/16 10:09:29;;;;;;;1.45;1.00;;;;;;;;;;5032495;28;20062;-80
2022/05/16 10:11:57;;;;;;;0.43;0.40;;;;;;;;;;5031877;28;20033;-80
2022/05/16 10:14:23;;;;;;;0.90;0.50;;;;;;;;;;5031841;28;20031;-80
2022/05/16 10:16:50;;;;;;;1.48;0.75;;;;;;;;;;5036533;28;20026;-80
2022/05/16 10:19:21;;;;;;;2.80;0.60;;;;;;;;;;5051879;28;20021;-80
2022/05/16 10:21:54;;;;;;;0.52;0.52;;;;;;;;;;5051257;28;20120;-80
2022/05/16 10:24:23;;;;;;;0.30;0.30;;;;;;;;;;5042937;28;20380;-81
2022/05/16 10:26:50;;;;;;;0.65;0.50;;;;;;;;;;5041702;28;20021;-80
2022/05/16 10:29:26;;;;;;;3.17;0.70;;;;;;;;;;5051558;28;20595;-80
2022/05/16 10:34:58;;;;;;;0.68;0.55;;;;;;;;;;5051171;28;20047;-81
2022/05/16 10:37:25;;;;;;;0.43;0.43;;;;;;;;;;5039263;28;20034;-79
2022/05/16 10:39:54;;;;;;;1.75;0.75;;;;;;;;;;5044175;28;20017;-80
2022/05/16 10:42:31;;;;;;;5.95;0.57;;;;;;;;;;5060025;28;20476;-80
2022/05/16 10:45:01;;;;;;;2.80;0.38;;;;;;;;;;5050970;28;20029;-80
2022/05/16 10:47:29;;;;;;;1.00;0.80;;;;;;;;;;5038394;28;20396;-79
2022/05/16 10:49:58;;;;;;;0.70;0.70;;;;;;;;;;5031291;28;20021;-79
2022/05/16 10:52:29;;;;;;;0.68;0.50;;;;;;;;;;5043188;28;20032;-79
2022/05/16 10:54:55;;;;;;;0.90;0.60;;;;;;;;;;5044078;28;20057;-81
2022/05/16 10:57:29;;;;;;;0.63;0.40;;;;;;;;;;5040075;28;20017;-79
2022/05/16 10:59:55;;;;;;;0.73;0.73;;;;;;;;;;5030692;28;20025;-79
2022/05/16 11:02:41;;;;;;;1.08;0.95;;;;;;;;;;5030219;28;20048;-79
2022/05/16 11:05:13;;;;;;;0.32;0.30;;;;;;;;;;5030741;28;20053;-80
2022/05/16 11:07:46;;;;;;;0.50;0.50;;;;;;;;;;5035605;28;20105;-79
2022/05/16 11:10:26;;;;;;;1.13;0.68;;;;;;;;;;5050372;28;20025;-83
2022/05/16 11:13:19;;;;;;;0.68;0.50;;;;;;;;;;5043435;28;20396;-83
2022/05/16 11:15:56;;;;;;;0.88;0.65;;;;;;;;;;5043474;28;20049;-86
2022/05/16 11:18:30;;;;;;;0.40;0.40;;;;;;;;;;5048960;28;20551;-88
2022/05/16 11:21:01;;;;;;;1.98;0.80;;;;;;;;;;5052400;28;20031;-86
2022/05/16 11:23:31;;;;;;;3.42;0.52;;;;;;;;;;5047841;28;20791;-89
2022/05/16 11:26:00;;;;;;;0.73;0.65;;;;;;;;;;5046590;28;20060;-89
2022/05/16 11:28:40;;;;;;;0.75;0.68;;;;;;;;;;5035159;28;20037;-91
2022/05/16 11:31:08;;;;;;;0.60;0.60;;;;;;;;;;5043202;28;20033;-89
2022/05/16 11:33:48;;;;;;;0.60;0.60;;;;;;;;;;5049301;28;20026;-91
2022/05/16 11:36:19;;;;;;;1.27;0.80;;;;;;;;;;5039557;28;20078;-84
2022/05/16 11:38:53;;;;;;;9.85;1.23;;;;;;;;;;5053809;28;20111;-89
2022/05/16 11:41:49;;;;;;;2.25;1.10;;;;;;;;;;5059674;28;20040;-89
2022/05/16 11:44:24;;;;;;;0.68;0.50;;;;;;;;;;5040206;28;20021;-88
2022/05/16 11:47:08;;;;;;;0.70;0.60;;;;;;;;;;5041604;28;20037;-89
2022/05/16 11:49:49;;;;;;;2.95;0.98;;;;;;;;;;5044864;28;20137;-90
2022/05/16 11:52:44;;;;;;;0.50;0.50;;;;;;;;;;5050684;28;20021;-91
2022/05/16 12:00:51;;;;;;;0.52;0.52;;;;;;;;;;5040230;28;20043;-89
2022/05/16 12:03:19;;;;;;;1.27;0.70;;;;;;;;;;5051823;28;20032;-91
2022/05/16 12:05:50;;;;;;;2.85;0.60;;;;;;;;;;5039413;28;20049;-88
2022/05/16 12:08:31;;;;;;;0.50;0.50;;;;;;;;;;5050772;28;20022;-89
2022/05/16 12:10:57;;;;;;;;;;;;;;;;;;5052108;28;20407;-89
2022/05/16 12:13:27;;;;;;;0.40;0.40;;;;;;;;;;5045544;28;20367;-90
2022/05/16 12:16:11;;;;;;;1.08;0.82;;;;;;;;;;5046663;28;20541;-89
2022/05/16 12:18:39;;;;;;;0.73;0.70;;;;;;;;;;5050443;28;20056;-90
2022/05/16 12:21:07;;;;;;;0.77;0.65;;;;;;;;;;5053034;28;20029;-88
2022/05/16 12:24:03;;;;;;;2.90;0.57;;;;;;;;;;5050410;28;20028;-88
2022/05/16 12:26:28;;;;;;;1.02;0.90;;;;;;;;;;5025371;28;20064;-90
2022/05/16 12:29:10;;;;;;;0.77;0.77;;;;;;;;;;5046084;28;20021;-89
2022/05/16 12:31:41;;;;;;;1.05;0.50;;;;;;;;;;5045113;28;20040;-88
2022/05/16 12:34:07;;;;;;;1.02;0.50;;;;;;;;;;5048727;28;20028;-89
2022/05/16 12:36:34;;;;;;;1.73;1.02;;;;;;;;;;5052214;28;20094;-89
2022/05/16 12:39:04;;;;;;;2.05;0.63;;;;;;;;;;5043289;28;20053;-90
2022/05/16 12:41:39;;;;;;;0.68;0.68;;;;;;;;;;5047703;28;20033;-90
2022/05/16 12:44:14;;;;;;;0.80;0.80;;;;;;;;;;5051274;28;22808;-89
2022/05/16 12:46:59;;;;;;;0.60;0.60;;;;;;;;;;5047444;28;20483;-90
2022/05/16 12:49:35;;;;;;;0.70;0.70;;;;;;;;;;5043314;28;20029;-89
2022/05/16 12:52:20;;;;;;;1.10;0.73;;;;;;;;;;5041988;28;20484;-90
2022/05/16 12:55:04;;;;;;;1.48;0.90;;;;;;;;;;5033668;28;20029;-88
2022/05/16 12:57:39;;;;;;;1.73;0.80;;;;;;;;;;5043760;28;20037;-90
2022/05/16 13:00:16;;;;;;;1.15;0.85;;;;;;;;;;5035397;28;20021;-90
2022/05/16 13:03:01;;;;;;;1.42;0.98;;;;;;;;;;5049219;28;20075;-91
2022/05/16 13:05:45;;;;;;;2.58;1.13;;;;;;;;;;5065721;28;20045;-89
2022/05/16 13:08:31;;;;;;;1.63;1.00;;;;;;;;;;5050367;28;20036;-90
2022/05/16 13:11:04;;;;;;;2.42;1.27;;;;;;;;;;5061578;28;20025;-90
2022/05/16 13:13:44;;;;;;;3.13;1.17;;;;;;;;;;5044926;28;20021;-89
2022/05/16 13:16:19;;;;;;;2.45;1.17;;;;;;;;;;5054933;28;20128;-90
2022/05/16 13:18:51;;;;;;;1.50;0.93;;;;;;;;;;5049895;28;20039;-86
2022/05/16 13:21:18;;;;;;;1.52;1.15;;;;;;;;;;5046153;28;20105;-89
2022/05/16 13:23:44;;;;;;;1.10;1.00;;;;;;;;;;5043606;28;20031;-89
2022/05/16 13:31:44;;;;;;;1.63;1.20;;;;;;;;;;5056911;28;20040;-89
2022/05/16 13:34:11;;;;;;;2.17;1.48;;;;;;;;;;5055898;28;20029;-89
2022/05/16 13:36:38;;;;;;;3.53;2.13;;;;;;;;;;5056579;28;20024;-89
2022/05/16 13:39:09;;;;;;;2.13;1.30;;;;;;;;;;5056295;28;20033;-89
2022/05/16 13:41:37;;;;;;;1.00;0.90;;;;;;;;;;5056062;28;20033;-89
2022/05/16 13:44:03;;;;;;;1.08;0.95;;;;;;;;;;5056231;28;20111;-89
2022/05/16 13:46:31;;;;;;;3.25;0.68;;;;;;;;;;5048180;28;20059;-89
2022/05/16 13:48:58;;;;;;;1.88;1.10;;;;;;;;;;5054315;28;20026;-89
2022/05/16 13:51:25;;;;;;;1.52;1.10;;;;;;;;;;5057258;28;20028;-88
2022/05/16 13:53:51;;;;;;;1.45;0.90;;;;;;;;;;5056161;28;20028;-84
2022/05/16 13:56:34;;;;;;;6.35;2.15;;;;;;;;;;5056609;28;20437;-87
2022/05/16 13:59:00;;;;;;;3.75;1.10;;;;;;;;;;5042750;28;20480;-83
2022/05/16 14:01:26;;;;;;;1.67;1.00;;;;;;;;;;5048170;28;20025;-90
2022/05/16 14:03:55;;;;;;;1.30;0.88;;;;;;;;;;5052688;28;20024;-76
2022/05/16 14:06:50;;;;;;;1.60;1.30;;;;;;;;;;5048714;28;20045;-76
2022/05/16 14:09:21;;;;;;;1.23;1.00;;;;;;;;;;5047374;28;20068;-76
2022/05/16 14:11:48;;;;;;;3.00;0.95;;;;;;;;;;5046397;28;20372;-76
2022/05/16 14:14:14;;;;;;;1.88;1.25;;;;;;;;;;5047657;28;20119;-76
2022/05/16 14:16:42;;;;;;;3.00;1.35;;;;;;;;;;5051941;28;20021;-76
2022/05/16 14:19:12;;;;;;;2.40;1.13;;;;;;;;;;5053843;28;20024;-76
2022/05/16 14:21:38;;;;;;;;;;;;;;;;;;5054764;28;20043;-77
2022/05/16 14:24:04;;;;;;;1.17;1.08;;;;;;;;;;5035152;28;19905;-75
2022/05/16 14:26:39;;;;;;;4.15;1.00;;;;;;;;;;5046111;28;20082;-77
2022/05/16 14:29:28;;;;;;;1.10;1.00;;;;;;;;;;5052936;28;20090;-77
2022/05/16 14:32:00;;;;;;;1.58;1.20;;;;;;;;;;5042842;28;20040;-79
2022/05/16 14:34:28;;;;;;;1.48;1.08;;;;;;;;;;5054284;28;20025;-75
2022/05/16 14:36:56;;;;;;;1.10;1.00;;;;;;;;;;5049666;28;20032;-76
2022/05/16 14:39:27;;;;;;;1.52;1.08;;;;;;;;;;5047619;28;20044;-74
2022/05/16 14:41:53;;;;;;;;;;;;;;;;;;5048529;28;20061;-79
2022/05/16 14:44:21;;;;;;;1.00;0.82;;;;;;;;;;5049165;28;19912;-82
2022/05/16 14:46:56;;;;;;;1.33;1.17;;;;;;;;;;5047096;28;20025;-83
2022/05/16 14:49:22;;;;;;;0.73;0.73;;;;;;;;;;5043133;28;20368;-83
2022/05/16 14:51:48;;;;;;;1.35;1.20;;;;;;;;;;5047413;28;20158;-82
2022/05/16 14:54:22;;;;;;;4.25;1.05;;;;;;;;;;5049105;28;20041;-81
2022/05/16 14:56:48;;;;;;;1.92;1.20;;;;;;;;;;5050651;28;20066;-81
2022/05/16 14:59:14;;;;;;;1.35;0.90;;;;;;;;;;5049308;28;20032;-82
2022/05/16 15:04:25;;;;;;;1.65;1.00;;;;;;;;;;5050674;28;20064;-82
2022/05/16 15:06:51;;;;;;;1.25;1.15;;;;;;;;;;5049746;28;20037;-82
2022/05/16 15:09:20;;;;;;;0.65;0.65;;;;;;;;;;5031186;28;20527;-82
2022/05/16 15:11:47;;;;;;;0.80;0.80;;;;;;;;;;5042982;28;20484;-84
2022/05/16 15:14:13;;;;;;;0.98;0.63;;;;;;;;;;5035430;28;20024;-83
2022/05/16 15:16:39;;;;;;;0.98;0.90;;;;;;;;;;5047903;28;20391;-81
2022/05/16 15:19:07;;;;;;;1.15;0.77;;;;;;;;;;5050447;28;20024;-81
2022/05/16 15:21:34;;;;;;;0.85;0.85;;;;;;;;;;5045763;28;20021;-83
2022/05/16 15:24:02;;;;;;;1.27;0.80;;;;;;;;;;5032759;28;20396;-82
2022/05/16 15:26:28;;;;;;;0.63;0.63;;;;;;;;;;5038635;28;20025;-82
2022/05/16 15:28:54;;;;;;;1.10;1.00;;;;;;;;;;5030866;28;20099;-82
2022/05/16 15:31:20;;;;;;;0.70;0.70;;;;;;;;;;5041184;28;20477;-80
2022/05/16 15:33:46;;;;;;;1.80;1.02;;;;;;;;;;5045455;28;20120;-79
2022/05/16 15:36:11;;;;;;;3.38;0.95;;;;;;;;;;5047720;28;20508;-81
2022/05/16 15:38:38;;;;;;;0.70;0.70;;;;;;;;;;5049560;28;20503;-81